createdAt,value
2018-09-24T00:02:24.367Z,13.83
2018-09-24T00:04:53.023Z,13.03
2018-09-24T00:07:21.668Z,14.07
2018-09-24T00:09:50.431Z,14.20
2018-09-24T00:12:18.989Z,14.70
2018-09-24T00:14:53.141Z,13.97
2018-09-24T00:17:21.757Z,14.60
2018-09-24T00:19:50.488Z,14.60
2018-09-24T00:22:19.140Z,14.90
2018-09-24T00:24:47.806Z,16.17
2018-09-24T00:27:16.461Z,17.07
2018-09-24T00:29:45.030Z,17.30
2018-09-24T00:32:13.635Z,18.27
2018-09-24T00:34:42.206Z,18.83
2018-09-24T00:37:10.791Z,17.97
2018-09-24T00:39:39.548Z,17.40
2018-09-24T00:42:08.373Z,17.23
2018-09-24T00:44:37.201Z,16.33
2018-09-24T00:47:05.975Z,16.80
2018-09-24T00:49:35.006Z,16.87
2018-09-24T00:52:04.136Z,17.87
2018-09-24T00:54:32.972Z,16.63
2018-09-24T00:57:01.696Z,18.87
2018-09-24T00:59:30.466Z,17.63
2018-09-24T01:01:59.165Z,17.47
2018-09-24T01:04:27.803Z,18.33
2018-09-24T01:06:56.533Z,18.10
2018-09-24T01:09:25.108Z,19.10
2018-09-24T01:11:53.645Z,19.67
2018-09-24T01:14:22.295Z,19.97
2018-09-24T01:16:50.925Z,21.20
2018-09-24T01:19:19.646Z,18.70
2018-09-24T01:21:48.325Z,19.47
2018-09-24T01:24:17.113Z,19.90
2018-09-24T01:26:45.855Z,18.43
2018-09-24T01:29:14.525Z,18.90
2018-09-24T01:31:43.200Z,18.93
2018-09-24T01:34:11.845Z,16.97
2018-09-24T01:36:40.453Z,16.50
2018-09-24T01:39:09.201Z,16.53
2018-09-24T01:41:37.880Z,15.87
2018-09-24T01:44:06.579Z,17.57
2018-09-24T01:46:35.285Z,17.33
2018-09-24T01:49:04.053Z,16.63
2018-09-24T01:51:38.028Z,18.60
2018-09-24T01:54:07.235Z,19.47
2018-09-24T01:56:36.017Z,18.90
2018-09-24T01:59:04.845Z,19.00
2018-09-24T02:01:33.555Z,20.57
2018-09-24T02:04:02.356Z,21.17
2018-09-24T02:06:31.038Z,20.70
2018-09-24T02:08:59.663Z,21.23
2018-09-24T02:11:28.258Z,20.17
2018-09-24T02:13:56.873Z,20.23
2018-09-24T02:16:25.460Z,20.90
2018-09-24T02:19:00.213Z,22.00
2018-09-24T02:21:29.033Z,22.30
2018-09-24T02:24:05.230Z,22.67
2018-09-24T02:26:33.920Z,22.40
2018-09-24T02:29:02.597Z,22.73
2018-09-24T02:31:38.968Z,23.03
2018-09-24T02:34:09.660Z,24.67
2018-09-24T02:36:38.353Z,25.70
2018-09-24T02:39:08.621Z,25.50
2018-09-24T02:41:37.733Z,25.43
2018-09-24T02:44:06.373Z,25.00
2018-09-24T02:46:42.687Z,24.97
2018-09-24T02:49:11.399Z,26.83
2018-09-24T02:51:40.186Z,25.47
2018-09-24T02:54:08.908Z,26.97
2018-09-24T02:56:47.495Z,28.53
2018-09-24T02:59:16.255Z,28.57
2018-09-24T03:01:44.835Z,29.93
2018-09-24T03:04:13.434Z,29.57
2018-09-24T03:06:41.983Z,30.77
2018-09-24T03:09:18.003Z,31.07
2018-09-24T03:11:47.029Z,33.07
2018-09-24T03:14:23.601Z,31.40
2018-09-24T03:16:53.095Z,31.60
2018-09-24T03:19:21.748Z,30.80
2018-09-24T03:21:50.486Z,32.77
2018-09-24T03:24:19.168Z,34.37
2018-09-24T03:26:47.833Z,32.57
2018-09-24T03:29:22.520Z,32.23
2018-09-24T03:31:51.493Z,33.20
2018-09-24T03:34:20.178Z,32.63
2018-09-24T03:36:50.061Z,31.37
2018-09-24T03:39:18.859Z,32.70
2018-09-24T03:41:47.534Z,32.20
2018-09-24T03:44:16.185Z,30.53
2018-09-24T03:46:44.886Z,30.93
2018-09-24T03:49:13.539Z,29.27
2018-09-24T03:51:42.403Z,29.50
2018-09-24T03:54:11.158Z,28.73
2018-09-24T03:56:39.827Z,27.17
2018-09-24T03:59:08.596Z,27.53
2018-09-24T04:01:37.498Z,29.03
2018-09-24T04:04:12.044Z,28.57
2018-09-24T04:06:46.335Z,27.60
2018-09-24T04:09:20.565Z,25.60
2018-09-24T04:11:54.868Z,26.57
2018-09-24T04:14:29.355Z,27.57
2018-09-24T04:17:03.425Z,27.10
2018-09-24T04:19:37.563Z,27.37
2018-09-24T04:22:11.814Z,26.37
2018-09-24T04:24:52.160Z,26.67
2018-09-24T04:27:26.228Z,28.27
2018-09-24T04:30:00.690Z,27.53
2018-09-24T04:32:34.724Z,25.77
2018-09-24T04:35:08.903Z,27.90
2018-09-24T04:37:44.555Z,27.60
2018-09-24T04:40:18.673Z,27.60
2018-09-24T04:42:52.689Z,26.47
2018-09-24T04:45:27.005Z,26.00
2018-09-24T04:48:01.270Z,27.10
2018-09-24T04:50:35.528Z,28.30
2018-09-24T04:53:15.393Z,28.07
2018-09-24T04:55:49.883Z,27.47
2018-09-24T04:58:24.227Z,28.57
2018-09-24T05:00:58.486Z,28.50
2018-09-24T05:03:32.712Z,27.83
2018-09-24T05:06:06.990Z,26.30
2018-09-24T05:08:43.548Z,29.60
2018-09-24T05:11:18.351Z,25.80
2018-09-24T05:13:52.552Z,26.33
2018-09-24T05:16:27.448Z,27.60
2018-09-24T05:19:02.590Z,27.73
2018-09-24T05:21:36.914Z,25.03
2018-09-24T05:24:11.986Z,25.60
2018-09-24T05:26:47.780Z,25.83
2018-09-24T05:29:27.408Z,27.63
2018-09-24T05:32:01.656Z,27.67
2018-09-24T05:34:35.932Z,25.37
2018-09-24T05:37:10.128Z,23.67
2018-09-24T05:39:48.318Z,23.87
2018-09-24T05:42:22.623Z,22.53
2018-09-24T05:44:56.948Z,23.13
2018-09-24T05:47:34.555Z,23.43
2018-09-24T05:50:19.533Z,21.67
2018-09-24T05:52:53.694Z,22.27
2018-09-24T05:55:27.988Z,23.10
2018-09-24T05:58:02.058Z,22.40
2018-09-24T06:00:39.333Z,20.90
2018-09-24T06:03:13.317Z,21.03
2018-09-24T06:05:47.378Z,20.73
2018-09-24T06:08:26.548Z,21.37
2018-09-24T06:11:00.896Z,18.57
2018-09-24T06:13:35.131Z,18.52
2018-09-24T06:16:09.381Z,19.67
2018-09-24T06:18:48.213Z,18.73
2018-09-24T06:21:24.031Z,18.43
2018-09-24T06:23:58.324Z,19.33
2018-09-24T06:26:32.608Z,18.00
2018-09-24T06:29:06.974Z,17.47
2018-09-24T06:31:41.986Z,17.73
2018-09-24T06:34:16.347Z,17.23
2018-09-24T06:36:50.600Z,16.70
2018-09-24T06:39:27.188Z,17.13
2018-09-24T06:42:03.014Z,16.43
2018-09-24T06:44:37.169Z,15.87
2018-09-24T06:47:11.245Z,15.88
2018-09-24T06:49:46.945Z,15.63
2018-09-24T06:52:25.296Z,14.80
2018-09-24T06:54:59.591Z,14.47
2018-09-24T06:57:33.836Z,14.27
2018-09-24T07:00:08.211Z,13.55
2018-09-24T07:02:43.331Z,13.65
2018-09-24T07:05:17.649Z,13.32
2018-09-24T07:07:51.781Z,12.15
2018-09-24T07:10:28.344Z,11.80
2018-09-24T07:13:03.436Z,12.07
2018-09-24T07:15:37.614Z,12.25
2018-09-24T07:18:11.794Z,12.45
2018-09-24T07:20:47.243Z,11.53
2018-09-24T07:23:22.254Z,12.25
2018-09-24T07:26:02.174Z,12.47
2018-09-24T07:28:36.876Z,11.90
2018-09-24T07:31:11.916Z,10.82
2018-09-24T07:33:46.151Z,11.63
2018-09-24T07:36:20.266Z,11.57
2018-09-24T07:38:54.566Z,10.55
2018-09-24T07:41:28.736Z,11.22
2018-09-24T07:44:05.649Z,11.18
2018-09-24T07:46:39.836Z,11.57
2018-09-24T07:49:14.044Z,11.30
2018-09-24T07:51:49.356Z,11.18
2018-09-24T07:54:24.627Z,11.48
2018-09-24T07:56:58.940Z,10.50
2018-09-24T07:59:33.956Z,11.22
2018-09-24T08:02:08.429Z,10.50
2018-09-24T08:04:42.916Z,10.82
2018-09-24T08:07:17.124Z,10.15
2018-09-24T08:09:52.236Z,9.93
2018-09-24T08:12:26.694Z,10.23
2018-09-24T08:15:01.805Z,9.80
2018-09-24T08:17:36.263Z,9.90
2018-09-24T08:20:10.566Z,10.45
2018-09-24T08:22:44.879Z,10.18
2018-09-24T08:25:19.969Z,9.58
2018-09-24T08:27:54.186Z,10.00
2018-09-24T08:30:29.158Z,10.40
2018-09-24T08:33:03.326Z,9.50
2018-09-24T08:35:37.765Z,9.78
2018-09-24T08:38:12.008Z,9.28
2018-09-24T08:40:46.945Z,10.05
2018-09-24T08:43:21.008Z,9.25
2018-09-24T08:45:55.261Z,8.90
2018-09-24T08:48:29.713Z,8.35
2018-09-24T08:51:05.729Z,8.08
2018-09-24T08:53:39.966Z,8.53
2018-09-24T08:56:18.833Z,9.20
2018-09-24T08:58:53.592Z,8.60
2018-09-24T09:01:28.683Z,8.00
2018-09-24T09:04:02.998Z,8.00
2018-09-24T09:06:37.244Z,7.60
2018-09-24T09:09:15.890Z,7.67
2018-09-24T09:11:50.213Z,7.58
2018-09-24T09:14:24.488Z,7.90
2018-09-24T09:16:58.728Z,6.78
2018-09-24T09:19:33.049Z,7.17
2018-09-24T09:22:08.234Z,6.53
2018-09-24T09:24:42.563Z,6.33
2018-09-24T09:27:16.868Z,5.78
2018-09-24T09:29:51.216Z,6.20
2018-09-24T09:32:26.179Z,6.05
2018-09-24T09:35:00.501Z,6.47
2018-09-24T09:37:34.904Z,6.30
2018-09-24T09:40:09.174Z,6.80
2018-09-24T09:42:43.309Z,6.10
2018-09-24T09:45:17.524Z,6.40
2018-09-24T09:47:52.708Z,4.35
2018-09-24T09:50:27.069Z,5.30
2018-09-24T09:53:01.291Z,5.60
2018-09-24T09:55:35.436Z,4.90
2018-09-24T09:58:09.653Z,4.90
2018-09-24T10:00:43.825Z,4.78
2018-09-24T10:03:18.141Z,4.60
2018-09-24T10:05:54.753Z,5.25
2018-09-24T10:08:28.933Z,5.03
2018-09-24T10:11:03.129Z,5.03
2018-09-24T10:13:37.486Z,4.83
2018-09-24T10:16:13.268Z,5.15
2018-09-24T10:18:48.230Z,5.62
2018-09-24T10:21:22.454Z,5.53
2018-09-24T10:23:56.713Z,5.40
2018-09-24T10:26:31.960Z,5.62
2018-09-24T10:29:09.346Z,5.03
2018-09-24T10:31:43.665Z,4.97
2018-09-24T10:34:17.914Z,4.85
2018-09-24T10:37:04.026Z,5.03
2018-09-24T10:39:43.891Z,4.42
2018-09-24T10:42:18.213Z,4.42
2018-09-24T10:44:52.501Z,4.90
2018-09-24T10:47:26.816Z,4.67
2018-09-24T10:50:01.001Z,5.22
2018-09-24T10:52:35.215Z,4.45
2018-09-24T10:55:09.338Z,5.05
2018-09-24T10:57:43.647Z,5.08
2018-09-24T11:00:18.005Z,5.03
2018-09-24T11:02:52.270Z,4.55
2018-09-24T11:05:26.506Z,4.25
2018-09-24T11:08:00.809Z,4.70
2018-09-24T11:10:35.168Z,4.70
2018-09-24T11:13:09.386Z,4.87
2018-09-24T11:15:43.775Z,7.72
2018-09-24T11:18:18.853Z,9.08
2018-09-24T11:20:53.165Z,8.33
2018-09-24T11:23:27.556Z,7.97
2018-09-24T11:26:01.871Z,8.78
2018-09-24T11:28:39.316Z,7.87
2018-09-24T11:31:13.623Z,7.70
2018-09-24T11:33:47.985Z,9.43
2018-09-24T11:36:22.446Z,8.90
2018-09-24T11:42:02.203Z,7.72
2018-09-24T11:44:36.603Z,7.85
2018-09-24T11:47:11.992Z,7.92
2018-09-24T11:49:46.405Z,7.00
2018-09-24T11:52:21.043Z,6.97
2018-09-24T11:54:55.550Z,6.30
2018-09-24T11:57:30.108Z,5.40
2018-09-24T12:00:04.380Z,5.92
2018-09-24T12:02:38.981Z,5.37
2018-09-24T12:05:13.825Z,5.80
2018-09-24T12:07:48.130Z,5.60
2018-09-24T12:10:22.528Z,5.42
2018-09-24T12:12:57.536Z,5.53
2018-09-24T12:15:31.803Z,5.70
2018-09-24T12:18:06.036Z,6.50
2018-09-24T12:20:40.393Z,6.47
2018-09-24T12:23:14.888Z,6.70
2018-09-24T12:25:49.193Z,6.85
2018-09-24T12:28:23.770Z,6.42
2018-09-24T12:30:58.033Z,6.50
2018-09-24T12:33:32.437Z,7.00
2018-09-24T12:36:06.726Z,5.67
2018-09-24T12:38:42.041Z,6.00
2018-09-24T12:41:17.076Z,6.08
2018-09-24T12:43:51.430Z,5.72
2018-09-24T12:46:25.694Z,5.45
2018-09-24T12:49:00.927Z,4.42
2018-09-24T12:51:35.281Z,5.03
2018-09-24T12:54:11.872Z,4.92
2018-09-24T12:56:47.099Z,4.53
2018-09-24T12:59:21.719Z,4.70
2018-09-24T13:01:56.639Z,4.95
2018-09-24T13:04:30.944Z,4.60
2018-09-24T13:07:05.213Z,5.25
2018-09-24T13:09:41.456Z,4.47
2018-09-24T13:12:15.911Z,5.12
2018-09-24T13:14:51.832Z,4.22
2018-09-24T13:17:26.308Z,3.70
2018-09-24T13:20:01.409Z,3.67
2018-09-24T13:22:35.781Z,3.35
2018-09-24T13:25:10.061Z,3.60
2018-09-24T13:27:44.310Z,2.90
2018-09-24T13:30:19.109Z,3.50
2018-09-24T13:32:53.415Z,3.65
2018-09-24T13:35:28.720Z,4.00
2018-09-24T13:38:02.958Z,3.80
2018-09-24T13:40:42.058Z,3.58
2018-09-24T13:43:20.992Z,2.90
2018-09-24T13:45:59.041Z,2.90
2018-09-24T13:48:33.687Z,2.50
2018-09-24T13:51:08.434Z,2.35
2018-09-24T13:53:43.221Z,2.30
2018-09-24T13:56:17.919Z,1.60
2018-09-24T13:58:52.186Z,1.62
2018-09-24T14:01:26.646Z,1.25
2018-09-24T14:04:02.072Z,1.50
2018-09-24T14:06:41.921Z,1.62
2018-09-24T14:09:18.143Z,1.25
2018-09-24T14:11:52.471Z,1.27
2018-09-24T14:14:27.178Z,1.00
2018-09-24T14:17:02.533Z,1.00
2018-09-24T14:19:36.821Z,1.17
2018-09-24T14:22:11.490Z,0.98
2018-09-24T14:24:45.770Z,1.10
2018-09-24T14:27:21.161Z,1.45
2018-09-24T14:29:55.443Z,0.93
2018-09-24T14:32:30.154Z,0.70
2018-09-24T14:35:04.836Z,1.22
2018-09-24T14:37:40.234Z,0.98
2018-09-24T14:40:14.771Z,0.70
2018-09-24T14:42:49.445Z,0.68
2018-09-24T14:45:24.131Z,0.80
2018-09-24T14:47:58.791Z,0.50
2018-09-24T14:50:33.504Z,0.75
2018-09-24T14:53:08.224Z,0.75
2018-09-24T14:55:42.932Z,0.78
2018-09-24T14:58:18.153Z,0.57
2018-09-24T15:00:53.073Z,0.50
2018-09-24T15:03:27.837Z,0.70
2018-09-24T15:06:02.609Z,0.70
2018-09-24T15:08:38.364Z,1.22
2018-09-24T15:11:13.679Z,0.62
2018-09-24T15:13:48.101Z,0.62
2018-09-24T15:16:22.674Z,0.45
2018-09-24T15:18:57.284Z,0.50
2018-09-24T15:21:33.522Z,0.40
2018-09-24T15:24:08.166Z,0.50
2018-09-24T15:26:42.592Z,0.50
2018-09-24T15:29:17.981Z,0.60
2018-09-24T15:31:53.089Z,0.55
2018-09-24T15:34:27.802Z,0.47
2018-09-24T15:37:02.726Z,0.70
2018-09-24T15:39:37.792Z,0.70
2018-09-24T15:42:13.502Z,0.80
2018-09-24T15:44:50.719Z,0.75
2018-09-24T15:47:25.579Z,0.70
2018-09-24T15:50:01.094Z,0.50
2018-09-24T15:52:36.358Z,0.60
2018-09-24T15:55:11.983Z,0.73
2018-09-24T15:57:47.104Z,0.70
2018-09-24T16:00:22.159Z,0.80
2018-09-24T16:02:56.912Z,0.80
2018-09-24T16:05:32.817Z,0.90
2018-09-24T16:08:08.633Z,0.70
2018-09-24T16:10:44.325Z,0.70
2018-09-24T16:13:18.716Z,0.60
2018-09-24T16:15:58.737Z,0.70
2018-09-24T16:18:38.598Z,0.80
2018-09-24T16:21:13.458Z,0.50
2018-09-24T16:23:48.207Z,0.83
2018-09-24T16:26:22.777Z,0.70
2018-09-24T16:28:57.550Z,0.83
2018-09-24T16:31:37.627Z,1.00
2018-09-24T16:34:12.236Z,1.00
2018-09-24T16:36:46.864Z,1.00
2018-09-24T16:39:21.357Z,1.00
2018-09-24T16:41:56.803Z,1.00
2018-09-24T16:44:31.536Z,1.00
2018-09-24T16:47:11.829Z,0.70
2018-09-24T16:49:46.398Z,1.10
2018-09-24T16:52:20.964Z,1.00
2018-09-24T16:54:55.626Z,0.97
2018-09-24T16:57:30.180Z,1.10
2018-09-24T17:00:04.835Z,1.10
2018-09-24T17:02:40.257Z,0.87
2018-09-24T17:05:15.072Z,1.20
2018-09-24T17:07:49.584Z,0.90
2018-09-24T17:10:24.169Z,0.93
2018-09-24T17:13:04.379Z,1.00
2018-09-24T17:15:39.187Z,1.20
2018-09-24T17:18:19.967Z,1.00
2018-09-24T17:20:54.559Z,0.93
2018-09-24T17:23:30.226Z,0.80
2018-09-24T17:26:04.876Z,1.00
2018-09-24T17:28:40.679Z,1.10
2018-09-24T17:31:20.965Z,1.30
2018-09-24T17:33:55.689Z,0.90
2018-09-24T17:36:30.198Z,1.00
2018-09-24T17:39:04.728Z,0.83
2018-09-24T17:41:39.714Z,0.90
2018-09-24T17:44:14.443Z,0.80
2018-09-24T17:46:48.882Z,0.90
2018-09-24T17:49:29.059Z,0.80
2018-09-24T17:52:03.639Z,0.77
2018-09-24T17:54:43.852Z,1.10
2018-09-24T17:57:18.509Z,0.80
2018-09-24T17:59:53.029Z,0.83
2018-09-24T18:02:29.163Z,0.70
2018-09-24T18:05:04.008Z,1.00
2018-09-24T18:07:39.046Z,1.57
2018-09-24T18:10:14.441Z,1.00
2018-09-24T18:12:48.936Z,0.80
2018-09-24T18:15:24.328Z,0.77
2018-09-24T18:17:58.911Z,0.83
2018-09-24T18:20:33.725Z,0.90
2018-09-24T18:23:08.271Z,0.80
2018-09-24T18:25:44.317Z,2.37
2018-09-24T18:28:19.058Z,0.80
2018-09-24T18:30:53.488Z,0.90
2018-09-24T18:52:37.389Z,0.77
2018-09-24T18:55:17.461Z,0.70
2018-09-24T18:57:58.160Z,0.60
2018-09-24T19:03:15.753Z,0.90
2018-09-24T19:05:51.496Z,0.60
2018-09-24T19:08:27.548Z,0.73
2018-09-24T19:11:01.891Z,0.77
2018-09-24T19:13:36.759Z,0.80
2018-09-24T19:16:16.667Z,0.83
2018-09-24T19:18:51.274Z,0.60
2018-09-24T19:21:25.644Z,0.80
2018-09-24T19:24:00.129Z,0.80
2018-09-24T19:26:35.776Z,0.70
2018-09-24T19:29:16.144Z,0.80
2018-09-24T19:31:50.801Z,0.90
2018-09-24T19:34:26.029Z,0.70
2018-09-24T19:37:01.068Z,0.50
2018-09-24T19:39:39.736Z,0.80
2018-09-24T19:42:14.506Z,0.53
2018-09-24T19:44:49.821Z,0.90
2018-09-24T19:47:24.375Z,0.80
2018-09-24T19:49:59.089Z,0.73
2018-09-24T19:55:45.896Z,0.67
2018-09-24T20:01:28.150Z,0.73
2018-09-24T20:04:02.711Z,0.70
2018-09-24T20:06:44.043Z,0.70
2018-09-24T20:09:18.619Z,0.80
2018-09-24T20:11:53.444Z,0.80
2018-09-24T20:14:28.376Z,0.60
2018-09-24T20:17:04.713Z,0.50
2018-09-24T20:19:41.379Z,0.63
2018-09-24T20:22:17.610Z,0.77
2018-09-24T20:24:59.422Z,0.70
2018-09-24T20:27:34.230Z,0.43
2018-09-24T20:30:08.984Z,0.60
2018-09-24T20:32:44.804Z,0.73
2018-09-24T20:35:20.107Z,0.63
2018-09-24T20:38:00.344Z,0.53
2018-09-24T20:40:34.966Z,0.60
2018-09-24T20:43:09.897Z,0.60
2018-09-24T20:45:45.641Z,0.90
2018-09-24T20:48:20.389Z,2.83
2018-09-24T20:50:55.352Z,0.73
2018-09-24T20:53:33.001Z,0.80
2018-09-24T20:56:07.711Z,0.70
2018-09-24T20:58:42.391Z,0.60
2018-09-24T21:01:17.046Z,0.80
2018-09-24T21:03:54.169Z,0.70
2018-09-24T21:06:29.198Z,0.70
2018-09-24T21:09:03.928Z,0.70
2018-09-24T21:11:38.774Z,0.90
2018-09-24T21:14:13.593Z,0.73
2018-09-24T21:16:53.836Z,0.70
2018-09-24T21:19:28.498Z,0.90
2018-09-24T21:22:03.147Z,0.90
2018-09-24T21:24:38.027Z,0.70
2018-09-24T21:27:12.863Z,0.90
2018-09-24T21:29:47.666Z,0.60
2018-09-24T21:32:22.496Z,0.70
2018-09-24T21:34:57.473Z,0.87
2018-09-24T21:37:32.251Z,0.80
2018-09-24T21:40:06.991Z,0.60
2018-09-24T21:42:41.779Z,0.80
2018-09-24T21:45:22.066Z,0.90
2018-09-24T21:47:56.772Z,0.80
2018-09-24T21:50:33.063Z,0.83
2018-09-24T21:53:09.410Z,0.80
2018-09-24T21:55:45.831Z,0.93
2018-09-24T21:58:22.101Z,0.77
2018-09-24T22:00:56.918Z,0.80
2018-09-24T22:03:32.207Z,0.70
2018-09-24T22:06:06.984Z,0.87
2018-09-24T22:08:41.862Z,0.70
2018-09-24T22:11:18.098Z,0.80
2018-09-24T22:13:52.982Z,0.90
2018-09-24T22:16:27.788Z,0.90
2018-09-24T22:19:03.158Z,1.07
2018-09-24T22:21:51.476Z,0.70
2018-09-24T22:24:25.736Z,0.90
2018-09-24T22:27:00.077Z,1.13
2018-09-24T22:29:35.703Z,1.00
2018-09-24T22:32:10.429Z,0.87
2018-09-24T22:34:44.657Z,1.10
2018-09-24T22:37:18.858Z,0.90
2018-09-24T22:39:53.031Z,0.90
2018-09-24T22:42:27.376Z,1.10
2018-09-24T22:45:02.438Z,0.73
2018-09-24T22:47:36.818Z,0.87
2018-09-24T22:50:11.340Z,0.90
2018-09-24T22:52:57.073Z,0.90
2018-09-24T22:55:31.968Z,0.83
2018-09-24T22:58:06.409Z,0.83
2018-09-24T23:00:40.623Z,0.90
2018-09-24T23:03:15.267Z,0.80
2018-09-24T23:05:49.480Z,0.77
2018-09-24T23:08:23.778Z,0.90
2018-09-24T23:10:58.835Z,0.80
2018-09-24T23:13:33.133Z,1.07
2018-09-24T23:16:07.476Z,1.00
2018-09-24T23:18:42.321Z,1.03
2018-09-24T23:21:16.461Z,0.80
2018-09-24T23:23:51.769Z,1.00
2018-09-24T23:26:26.861Z,1.00
2018-09-24T23:29:01.787Z,1.10
2018-09-24T23:31:35.889Z,1.17
2018-09-24T23:34:10.264Z,0.80
2018-09-24T23:36:44.489Z,1.00
2018-09-24T23:39:18.783Z,1.00
2018-09-24T23:41:53.033Z,1.00
2018-09-24T23:44:27.416Z,1.00
2018-09-24T23:47:01.585Z,1.30
2018-09-24T23:49:36.041Z,0.97
2018-09-24T23:52:10.277Z,1.07
2018-09-24T23:54:45.154Z,0.90
2018-09-24T23:57:19.583Z,0.90
2018-09-24T23:59:53.989Z,1.17
